createdAt,value
2022-07-31T00:01:29.536Z,4.50
2022-07-31T00:06:43.936Z,4.00
2022-07-31T00:11:49.856Z,5.50
2022-07-31T00:16:56.274Z,5.20
2022-07-31T00:22:02.077Z,4.70
2022-07-31T00:27:10.857Z,3.10
2022-07-31T00:32:16.868Z,5.70
2022-07-31T00:37:22.742Z,3.30
2022-07-31T00:42:28.855Z,4.40
2022-07-31T00:47:34.749Z,6.80
2022-07-31T00:52:41.588Z,4.90
2022-07-31T00:57:47.384Z,4.70
2022-07-31T01:02:53.288Z,6.20
2022-07-31T01:07:59.821Z,6.00
2022-07-31T01:13:10.584Z,4.70
2022-07-31T01:18:18.643Z,7.50
2022-07-31T01:23:57.120Z,5.30
2022-07-31T01:29:19.058Z,3.90
2022-07-31T01:34:34.095Z,5.70
2022-07-31T01:39:49.608Z,4.30
2022-07-31T01:45:00.754Z,6.10
2022-07-31T01:55:15.909Z,4.50
2022-07-31T02:00:23.585Z,9.00
2022-07-31T02:05:43.040Z,5.20
2022-07-31T02:10:49.901Z,7.20
2022-07-31T02:15:58.116Z,5.10
2022-07-31T02:21:04.399Z,4.30
2022-07-31T02:26:11.442Z,5.80
2022-07-31T02:31:18.801Z,4.60
2022-07-31T02:36:27.646Z,4.20
2022-07-31T02:41:35.103Z,6.30
2022-07-31T02:46:44.746Z,5.10
2022-07-31T02:51:50.940Z,4.20
2022-07-31T02:56:58.494Z,5.50
2022-07-31T03:02:05.029Z,5.70
2022-07-31T03:07:12.964Z,4.40
2022-07-31T03:12:19.785Z,3.00
2022-07-31T03:17:40.911Z,5.90
2022-07-31T03:22:48.989Z,4.30
2022-07-31T03:27:56.179Z,6.10
2022-07-31T03:33:03.658Z,5.20
2022-07-31T03:38:40.819Z,6.00
2022-07-31T03:43:46.914Z,3.90
2022-07-31T03:48:55.817Z,3.90
2022-07-31T03:54:04.320Z,4.40
2022-07-31T03:59:36.638Z,6.50
2022-07-31T04:04:47.398Z,4.30
2022-07-31T04:09:54.035Z,4.70
2022-07-31T04:15:00.468Z,5.60
2022-07-31T04:20:08.370Z,5.90
2022-07-31T04:25:14.874Z,5.60
2022-07-31T04:30:47.013Z,7.20
2022-07-31T04:35:53.593Z,3.00
2022-07-31T04:40:59.413Z,2.30
2022-07-31T04:46:17.751Z,2.10
2022-07-31T04:51:25.085Z,2.30
2022-07-31T04:56:34.360Z,2.40
2022-07-31T05:01:42.021Z,2.80
2022-07-31T05:06:51.070Z,1.70
2022-07-31T05:11:57.537Z,2.50
2022-07-31T05:17:03.596Z,1.30
2022-07-31T05:22:27.492Z,1.60
2022-07-31T05:28:09.687Z,1.90
2022-07-31T05:33:16.384Z,2.80
2022-07-31T05:38:22.919Z,5.30
2022-07-31T05:43:48.940Z,2.40
2022-07-31T05:49:00.503Z,3.60
2022-07-31T05:54:07.160Z,2.70
2022-07-31T05:59:32.917Z,2.60
2022-07-31T06:04:38.991Z,2.20
2022-07-31T06:09:44.996Z,2.10
2022-07-31T06:14:55.410Z,2.70
2022-07-31T06:20:13.504Z,2.00
2022-07-31T06:25:19.482Z,1.30
2022-07-31T06:30:25.652Z,1.40
2022-07-31T06:35:32.109Z,1.10
2022-07-31T06:41:01.053Z,2.00
2022-07-31T06:46:16.438Z,2.10
2022-07-31T06:52:01.493Z,3.70
2022-07-31T06:57:11.700Z,1.40
2022-07-31T07:02:18.117Z,2.50
2022-07-31T07:07:24.140Z,1.20
2022-07-31T07:12:37.952Z,1.80
2022-07-31T07:17:43.913Z,3.30
2022-07-31T07:22:54.178Z,1.90
2022-07-31T07:28:29.330Z,1.70
2022-07-31T07:33:39.518Z,1.70
2022-07-31T07:38:55.622Z,2.30
2022-07-31T07:44:04.286Z,2.00
2022-07-31T07:49:10.279Z,3.40
2022-07-31T07:54:19.558Z,2.10
2022-07-31T07:59:44.177Z,1.80
2022-07-31T08:05:09.581Z,1.90
2022-07-31T08:10:19.186Z,2.70
2022-07-31T08:15:42.174Z,3.90
2022-07-31T08:21:14.437Z,1.80
2022-07-31T08:26:20.305Z,2.20
2022-07-31T08:31:27.428Z,2.10
2022-07-31T08:36:59.736Z,2.00
2022-07-31T08:42:25.910Z,2.00
2022-07-31T08:47:35.157Z,2.40
2022-07-31T08:52:49.463Z,2.60
2022-07-31T08:58:15.440Z,3.00
2022-07-31T09:03:21.668Z,2.00
2022-07-31T09:08:37.956Z,2.60
2022-07-31T09:14:02.801Z,3.00
2022-07-31T09:19:51.874Z,1.60
2022-07-31T09:25:08.773Z,2.30
2022-07-31T09:30:15.901Z,3.00
2022-07-31T09:35:48.412Z,2.60
2022-07-31T09:40:57.540Z,2.10
2022-07-31T09:46:06.097Z,1.50
2022-07-31T09:51:12.056Z,2.30
2022-07-31T09:56:18.314Z,1.60
2022-07-31T10:01:24.577Z,1.50
2022-07-31T10:06:34.578Z,1.50
2022-07-31T10:11:42.607Z,1.70
2022-07-31T10:16:55.087Z,1.30
2022-07-31T10:22:20.278Z,1.30
2022-07-31T10:27:28.382Z,4.70
2022-07-31T10:32:42.522Z,1.70
2022-07-31T10:38:21.173Z,1.90
2022-07-31T10:43:30.907Z,2.80
2022-07-31T10:48:57.962Z,1.60
2022-07-31T10:54:38.195Z,2.30
2022-07-31T11:00:12.989Z,1.10
2022-07-31T11:06:02.427Z,2.00
2022-07-31T11:11:35.720Z,3.10
2022-07-31T11:17:05.428Z,2.00
2022-07-31T11:22:42.991Z,3.90
2022-07-31T11:27:49.036Z,4.90
2022-07-31T11:32:57.942Z,2.40
2022-07-31T11:38:03.949Z,5.40
2022-07-31T11:43:25.562Z,2.60
2022-07-31T11:48:38.059Z,2.70
2022-07-31T11:53:51.168Z,2.30
2022-07-31T11:59:04.162Z,3.50
2022-07-31T12:04:11.714Z,2.30
2022-07-31T12:10:01.471Z,3.70
2022-07-31T12:14:44.899Z,4.90
2022-07-31T12:19:52.885Z,3.90
2022-07-31T12:25:06.056Z,3.20
2022-07-31T12:30:20.087Z,5.30
2022-07-31T12:35:55.917Z,3.90
2022-07-31T12:41:07.778Z,3.50
2022-07-31T12:46:17.222Z,4.80
2022-07-31T12:51:44.034Z,4.30
2022-07-31T12:56:51.745Z,5.50
2022-07-31T13:01:58.065Z,5.80
2022-07-31T13:07:04.697Z,4.90
2022-07-31T13:12:11.343Z,5.60
2022-07-31T13:17:17.257Z,5.40
2022-07-31T13:22:23.406Z,7.60
2022-07-31T13:27:29.260Z,4.70
2022-07-31T13:32:35.157Z,5.90
2022-07-31T13:37:41.006Z,6.60
2022-07-31T13:42:47.078Z,4.10
2022-07-31T13:47:55.940Z,4.10
2022-07-31T13:53:05.676Z,5.90
2022-07-31T13:58:11.638Z,5.00
2022-07-31T14:03:19.194Z,4.30
2022-07-31T14:08:33.495Z,7.60
2022-07-31T14:13:53.440Z,3.20
2022-07-31T14:18:59.462Z,3.50
2022-07-31T14:24:05.845Z,3.50
2022-07-31T14:29:11.624Z,2.60
2022-07-31T14:34:17.487Z,3.80
2022-07-31T14:39:23.394Z,4.60
2022-07-31T14:44:29.239Z,2.70
2022-07-31T14:50:08.353Z,3.40
2022-07-31T14:55:02.376Z,2.70
2022-07-31T15:00:13.956Z,3.90
2022-07-31T15:06:41.977Z,2.40
2022-07-31T15:10:45.797Z,3.00
2022-07-31T15:15:52.834Z,2.60
2022-07-31T15:21:00.858Z,3.60
2022-07-31T15:26:06.948Z,4.00
2022-07-31T15:31:13.233Z,2.90
2022-07-31T15:36:23.152Z,6.00
2022-07-31T15:41:29.002Z,2.00
2022-07-31T15:46:34.893Z,2.50
2022-07-31T15:51:40.715Z,3.20
2022-07-31T15:56:47.140Z,2.60
2022-07-31T16:01:53.392Z,2.40
2022-07-31T16:08:31.639Z,2.50
2022-07-31T16:12:50.838Z,2.90
2022-07-31T16:17:57.025Z,2.20
2022-07-31T16:23:03.224Z,2.00
2022-07-31T16:28:08.928Z,2.10
2022-07-31T16:33:14.763Z,5.10
2022-07-31T16:38:20.685Z,5.50
2022-07-31T16:43:49.126Z,3.50
2022-07-31T16:48:53.294Z,4.30
2022-07-31T16:54:14.642Z,3.00
2022-07-31T16:59:22.743Z,7.40
2022-07-31T17:04:29.059Z,4.10
2022-07-31T17:09:34.930Z,4.70
2022-07-31T17:14:51.083Z,4.20
2022-07-31T17:19:57.193Z,4.70
2022-07-31T17:25:03.073Z,3.40
2022-07-31T17:30:10.747Z,5.40
2022-07-31T17:35:16.872Z,3.60
2022-07-31T17:40:42.484Z,5.10
2022-07-31T17:45:59.418Z,8.30
2022-07-31T17:51:12.583Z,4.70
2022-07-31T17:56:18.944Z,6.70
2022-07-31T18:01:28.972Z,6.40
2022-07-31T18:06:35.402Z,7.90
2022-07-31T18:11:41.265Z,4.60
2022-07-31T18:16:47.083Z,4.40
2022-07-31T18:21:53.371Z,4.70
2022-07-31T18:26:59.563Z,8.10
2022-07-31T18:32:06.616Z,6.10
2022-07-31T18:37:12.913Z,5.70
2022-07-31T18:42:19.241Z,6.60
2022-07-31T18:47:25.442Z,3.90
2022-07-31T18:52:31.356Z,5.40
2022-07-31T18:57:37.593Z,6.80
2022-07-31T19:02:43.447Z,7.10
2022-07-31T19:07:49.779Z,7.80
2022-07-31T19:12:56.388Z,7.70
2022-07-31T19:18:02.439Z,9.90
2022-07-31T19:23:12.572Z,9.00
2022-07-31T19:28:18.757Z,6.80
2022-07-31T19:33:26.005Z,7.60
2022-07-31T19:38:33.084Z,5.50
2022-07-31T19:43:39.038Z,6.70
2022-07-31T19:48:46.509Z,5.20
2022-07-31T19:53:52.685Z,3.40
2022-07-31T19:58:59.158Z,4.70
2022-07-31T20:04:05.541Z,4.60
2022-07-31T20:09:11.912Z,4.10
2022-07-31T20:14:18.040Z,5.70
2022-07-31T20:19:23.943Z,4.10
2022-07-31T20:24:31.029Z,5.10
2022-07-31T20:29:37.523Z,5.10
2022-07-31T20:34:43.438Z,9.20
2022-07-31T20:39:49.374Z,5.50
2022-07-31T20:44:55.479Z,5.60
2022-07-31T20:50:01.620Z,4.90
2022-07-31T20:55:08.690Z,4.40
2022-07-31T21:00:18.338Z,7.40
2022-07-31T21:05:29.218Z,7.00
2022-07-31T21:15:44.594Z,3.80
2022-07-31T21:20:53.773Z,5.90
2022-07-31T21:26:00.641Z,4.00
2022-07-31T21:31:07.535Z,4.80
2022-07-31T21:36:14.960Z,5.50
2022-07-31T21:41:23.091Z,4.40
2022-07-31T21:46:30.010Z,5.50
2022-07-31T21:51:36.556Z,6.80
2022-07-31T21:56:42.493Z,5.40
2022-07-31T22:01:57.801Z,6.20
2022-07-31T22:07:27.217Z,6.00
2022-07-31T22:12:34.126Z,7.00
2022-07-31T22:17:40.642Z,5.40
2022-07-31T22:22:47.703Z,9.60
2022-07-31T22:27:57.352Z,3.60
2022-07-31T22:33:04.944Z,5.70
2022-07-31T22:38:14.744Z,4.90
2022-07-31T22:44:10.391Z,5.50
2022-07-31T22:48:47.992Z,5.10
2022-07-31T22:53:56.630Z,6.90
2022-07-31T22:59:02.610Z,6.00
2022-07-31T23:04:08.918Z,5.00
2022-07-31T23:09:14.777Z,4.90
2022-07-31T23:14:20.773Z,5.90
2022-07-31T23:19:26.810Z,5.30
2022-07-31T23:24:32.845Z,8.10
2022-07-31T23:29:41.721Z,5.60
2022-07-31T23:34:48.077Z,5.40
2022-07-31T23:39:54.182Z,6.00
2022-07-31T23:45:00.420Z,6.40
2022-07-31T23:50:07.758Z,5.00
2022-07-31T23:55:13.718Z,4.00
